Time;durP1;ratioP1;P1;durP2;ratioP2;P2;SDS_P1;SDS_P2;PMS_P1;PMS_P2;Temp;Humidity;BMP_temperature;BMP_pressure;BME280_temperature;BME280_humidity;BME280_pressure;Samples;Min_cycle;Max_cycle;Signal;HPM_P1;HPM_P2
2023/06/15 00:02:23;;;;;;;4.77;1.70;;;13.50;54.90;;;;;;5007191;28;20199;-66
2023/06/15 00:04:51;;;;;;;3.67;1.67;;;13.60;54.20;;;;;;5003604;28;20664;-66
2023/06/15 00:07:18;;;;;;;5.80;1.93;;;13.70;53.90;;;;;;4995543;28;20197;-67
2023/06/15 00:09:46;;;;;;;4.03;1.50;;;13.90;53.50;;;;;;5004951;28;20219;-67
2023/06/15 00:12:13;;;;;;;3.50;1.40;;;14.00;53.00;;;;;;5004720;28;20220;-67
2023/06/15 00:14:41;;;;;;;7.10;1.60;;;14.10;52.60;;;;;;5003601;28;20677;-67
2023/06/15 00:17:11;;;;;;;3.33;1.60;;;14.20;52.10;;;;;;5000431;28;20530;-66
2023/06/15 00:19:39;;;;;;;3.70;1.33;;;14.20;51.20;;;;;;4999271;28;20564;-68
2023/06/15 00:22:09;;;;;;;5.23;1.60;;;14.30;51.20;;;;;;5003544;28;20268;-66
2023/06/15 00:24:37;;;;;;;4.33;1.80;;;14.30;51.00;;;;;;5006059;28;20622;-67
2023/06/15 00:27:05;;;;;;;4.17;1.33;;;14.40;50.90;;;;;;5006396;28;20195;-67
2023/06/15 00:29:32;;;;;;;6.93;1.80;;;14.50;50.70;;;;;;5005955;28;20189;-66
2023/06/15 00:32:00;;;;;;;3.60;1.10;;;14.60;49.90;;;;;;5003845;28;20193;-66
2023/06/15 00:34:27;;;;;;;4.77;1.33;;;14.70;49.60;;;;;;4996386;28;20202;-66
2023/06/15 00:36:54;;;;;;;5.87;1.37;;;14.70;49.20;;;;;;5003687;28;20637;-67
2023/06/15 00:39:22;;;;;;;5.30;1.57;;;14.80;49.80;;;;;;5008182;28;20185;-66
2023/06/15 00:41:49;;;;;;;1.27;1.03;;;14.80;49.10;;;;;;5001470;28;20197;-67
2023/06/15 00:44:16;;;;;;;4.00;1.50;;;14.90;49.30;;;;;;4989446;28;20556;-67
2023/06/15 00:46:44;;;;;;;3.53;1.20;;;15.10;48.90;;;;;;4999606;28;20516;-67
2023/06/15 00:49:12;;;;;;;3.70;1.33;;;15.20;48.10;;;;;;5000923;28;20268;-68
2023/06/15 00:51:40;;;;;;;2.60;1.13;;;15.20;47.70;;;;;;5004887;28;20181;-69
2023/06/15 00:54:08;;;;;;;4.40;1.27;;;15.20;47.30;;;;;;4998043;28;20316;-68
2023/06/15 00:56:36;;;;;;;2.83;1.10;;;15.30;47.70;;;;;;4986414;28;20640;-66
2023/06/15 00:59:03;;;;;;;4.23;1.07;;;15.30;48.60;;;;;;5004734;28;20641;-68
2023/06/15 01:01:31;;;;;;;1.53;1.20;;;15.40;47.50;;;;;;5001313;28;20643;-67
2023/06/15 01:03:59;;;;;;;2.40;1.23;;;15.50;47.20;;;;;;5009602;28;20221;-67
2023/06/15 01:06:31;;;;;;;5.90;1.53;;;15.50;46.50;;;;;;5003841;28;20189;-65
2023/06/15 01:09:03;;;;;;;3.43;1.23;;;15.40;47.30;;;;;;5009127;28;20274;-67
2023/06/15 01:11:33;;;;;;;5.70;1.50;;;15.40;47.30;;;;;;5003055;28;20179;-67
2023/06/15 01:14:01;;;;;;;2.20;1.20;;;15.60;47.00;;;;;;5010686;28;20177;-66
2023/06/15 01:16:41;;;;;;;3.37;1.10;;;15.70;46.60;;;;;;5005038;28;20185;-68
2023/06/15 01:19:40;;;;;;;8.93;1.20;;;15.80;46.20;;;;;;5009131;28;20188;-67
2023/06/15 01:22:24;;;;;;;6.47;1.57;;;15.90;46.80;;;;;;5009505;28;20746;-67
2023/06/15 01:25:10;;;;;;;2.50;1.23;;;16.00;45.60;;;;;;5006447;28;20181;-68
2023/06/15 01:27:39;;;;;;;6.20;1.67;;;16.00;46.10;;;;;;5001669;28;20177;-66
2023/06/15 01:30:09;;;;;;;6.63;1.53;;;16.00;45.60;;;;;;5010720;28;20227;-66
2023/06/15 01:32:37;;;;;;;3.63;1.40;;;15.90;45.90;;;;;;5004938;28;20610;-68
2023/06/15 01:35:04;;;;;;;4.70;1.50;;;16.20;45.90;;;;;;5003244;28;20567;-66
2023/06/15 01:37:32;;;;;;;4.30;1.27;;;16.30;45.60;;;;;;5006381;28;20199;-71
2023/06/15 01:39:59;;;;;;;6.80;1.40;;;16.40;45.90;;;;;;5007845;28;20560;-68
2023/06/15 01:42:27;;;;;;;2.50;1.50;;;16.30;44.90;;;;;;5005244;28;20254;-67
2023/06/15 01:44:55;;;;;;;3.63;1.30;;;16.30;45.70;;;;;;5007635;28;20187;-67
2023/06/15 01:47:23;;;;;;;2.87;1.27;;;16.50;45.50;;;;;;5006245;28;20195;-67
2023/06/15 01:49:51;;;;;;;4.67;1.30;;;16.50;45.10;;;;;;5009311;28;20184;-67
2023/06/15 01:52:18;;;;;;;2.37;0.93;;;16.60;45.60;;;;;;4999793;28;20195;-69
2023/06/15 01:54:47;;;;;;;3.97;1.00;;;16.80;44.70;;;;;;5003986;28;20258;-66
2023/06/15 01:57:18;;;;;;;5.33;1.30;;;16.60;45.20;;;;;;5006391;28;20557;-66
2023/06/15 01:59:46;;;;;;;4.27;1.10;;;16.70;45.20;;;;;;5008421;28;20219;-67
2023/06/15 02:02:13;;;;;;;6.17;1.97;;;16.80;45.50;;;;;;5008347;28;20225;-67
2023/06/15 02:04:40;;;;;;;3.23;1.10;;;16.90;45.30;;;;;;5007155;28;20644;-66
2023/06/15 02:07:07;;;;;;;3.30;1.00;;;17.20;44.40;;;;;;5005552;28;20188;-67
2023/06/15 02:09:35;;;;;;;2.80;1.37;;;17.10;44.70;;;;;;5003536;28;20608;-70
2023/06/15 02:12:02;;;;;;;4.03;1.33;;;17.10;45.10;;;;;;4988223;28;20193;-68
2023/06/15 02:14:29;;;;;;;3.17;1.30;;;17.20;44.80;;;;;;5006048;28;20252;-67
2023/06/15 02:16:58;;;;;;;4.27;1.27;;;17.20;44.60;;;;;;5006269;28;20194;-69
2023/06/15 02:19:28;;;;;;;2.60;1.10;;;17.30;44.30;;;;;;4990506;28;20589;-69
2023/06/15 02:25:17;;;;;;;2.53;1.00;;;17.30;44.90;;;;;;4999533;28;20332;-67
2023/06/15 02:27:44;;;;;;;2.53;0.90;;;17.50;44.00;;;;;;5007991;28;20670;-67
2023/06/15 02:30:12;;;;;;;1.77;0.90;;;17.60;44.60;;;;;;5005072;28;20269;-70
2023/06/15 02:32:42;;;;;;;3.73;1.00;;;17.70;44.00;;;;;;5007565;28;20191;-68
2023/06/15 02:35:12;;;;;;;3.37;1.03;;;17.70;43.80;;;;;;5001446;28;20213;-72
2023/06/15 02:37:41;;;;;;;3.60;0.90;;;17.60;43.70;;;;;;5007961;28;20207;-68
2023/06/15 02:40:09;;;;;;;3.07;0.83;;;17.60;44.30;;;;;;5008871;28;20242;-68
2023/06/15 02:42:37;;;;;;;2.80;1.00;;;17.70;44.60;;;;;;5005171;28;20664;-68
2023/06/15 02:45:06;;;;;;;5.00;0.93;;;17.60;44.30;;;;;;5003454;28;20534;-69
2023/06/15 02:47:37;;;;;;;2.90;0.97;;;17.60;44.40;;;;;;5005525;28;20193;-67
2023/06/15 02:50:06;;;;;;;1.40;1.00;;;17.70;44.20;;;;;;5007131;28;20194;-68
2023/06/15 02:52:36;;;;;;;5.30;1.13;;;17.70;44.60;;;;;;5005112;28;20201;-68
2023/06/15 02:55:04;;;;;;;5.40;0.93;;;17.40;44.60;;;;;;5004063;28;20216;-69
2023/06/15 02:57:31;;;;;;;2.50;1.20;;;17.20;45.00;;;;;;5006849;28;20237;-70
2023/06/15 02:59:59;;;;;;;4.43;1.30;;;17.00;45.20;;;;;;5006212;28;20280;-68
2023/06/15 03:02:26;;;;;;;4.23;1.20;;;17.20;45.80;;;;;;5002006;28;20193;-67
2023/06/15 03:04:57;;;;;;;3.73;1.30;;;17.60;45.30;;;;;;5005416;28;20193;-69
2023/06/15 03:07:25;;;;;;;2.53;0.97;;;17.60;44.20;;;;;;5004485;28;20533;-68
2023/06/15 03:09:53;;;;;;;2.23;1.00;;;17.50;44.80;;;;;;5004288;28;20528;-68
2023/06/15 03:12:20;;;;;;;2.73;0.93;;;17.60;44.70;;;;;;5004772;28;20187;-68
2023/06/15 03:14:51;;;;;;;2.40;0.93;;;17.60;45.00;;;;;;5006241;28;20562;-67
2023/06/15 03:17:21;;;;;;;3.00;1.07;;;17.70;44.20;;;;;;5005709;28;20181;-68
2023/06/15 03:19:48;;;;;;;5.60;1.20;;;17.60;44.10;;;;;;5003824;28;20184;-67
2023/06/15 03:22:16;;;;;;;3.33;1.10;;;17.80;44.20;;;;;;5008262;28;20192;-69
2023/06/15 03:24:44;;;;;;;2.87;0.90;;;18.10;43.60;;;;;;5002270;28;20232;-66
2023/06/15 03:27:11;;;;;;;2.90;0.90;;;18.30;43.20;;;;;;5003582;28;20213;-69
2023/06/15 03:29:39;;;;;;;2.53;0.80;;;18.30;42.00;;;;;;5007830;28;20188;-67
2023/06/15 03:32:10;;;;;;;1.73;0.63;;;18.20;42.30;;;;;;5007954;28;20285;-67
2023/06/15 03:34:38;;;;;;;3.47;0.80;;;18.40;41.40;;;;;;5007438;28;20213;-67
2023/06/15 03:37:06;;;;;;;1.57;0.90;;;18.50;41.20;;;;;;5005607;28;20185;-66
2023/06/15 03:39:33;;;;;;;7.77;1.40;;;18.80;40.90;;;;;;5007529;28;20585;-67
2023/06/15 03:42:01;;;;;;;3.93;1.03;;;18.90;41.00;;;;;;5001703;28;20189;-72
2023/06/15 03:44:28;;;;;;;2.60;0.83;;;19.50;40.20;;;;;;5005927;28;20654;-70
2023/06/15 03:46:56;;;;;;;4.17;1.20;;;19.80;39.30;;;;;;5002613;28;20185;-69
2023/06/15 03:49:23;;;;;;;2.40;0.80;;;19.60;38.90;;;;;;5003371;28;20177;-69
2023/06/15 03:51:50;;;;;;;2.67;0.77;;;19.30;39.30;;;;;;5005364;28;20200;-70
2023/06/15 03:54:17;;;;;;;2.80;0.90;;;19.60;38.60;;;;;;5007629;28;20236;-68
2023/06/15 03:56:45;;;;;;;1.70;0.50;;;19.70;39.00;;;;;;5003423;28;20186;-69
2023/06/15 03:59:12;;;;;;;1.90;0.80;;;19.90;38.30;;;;;;5006759;28;20311;-68
2023/06/15 04:01:39;;;;;;;2.73;0.80;;;20.10;37.60;;;;;;5006643;28;20279;-67
2023/06/15 04:04:07;;;;;;;1.37;0.60;;;20.30;37.10;;;;;;5005223;28;20189;-67
2023/06/15 04:06:35;;;;;;;1.90;0.63;;;20.50;36.90;;;;;;5007117;28;20255;-67
2023/06/15 04:09:03;;;;;;;2.50;0.63;;;20.60;36.40;;;;;;5006182;28;20268;-67
2023/06/15 04:11:30;;;;;;;1.40;0.80;;;20.00;37.30;;;;;;5004117;28;20185;-66
2023/06/15 04:13:58;;;;;;;1.60;0.70;;;20.80;36.60;;;;;;5006390;28;20181;-65
2023/06/15 04:16:25;;;;;;;0.67;0.60;;;20.80;36.60;;;;;;4999186;28;20312;-66
2023/06/15 04:18:52;;;;;;;1.13;0.60;;;20.30;36.70;;;;;;5006309;28;20292;-66
2023/06/15 04:21:19;;;;;;;1.73;0.80;;;20.30;36.80;;;;;;5005945;28;20201;-68
2023/06/15 04:23:47;;;;;;;2.33;0.70;;;20.30;36.70;;;;;;5001120;28;20196;-65
2023/06/15 04:26:14;;;;;;;0.93;0.80;;;20.10;36.90;;;;;;5008362;28;20209;-69
2023/06/15 04:28:45;;;;;;;1.93;0.70;;;20.50;37.20;;;;;;5002401;28;20264;-67
2023/06/15 04:31:20;;;;;;;1.67;0.73;;;21.00;36.00;;;;;;5005758;28;20193;-67
2023/06/15 04:33:48;;;;;;;3.97;0.70;;;21.00;35.40;;;;;;5005450;28;20248;-65
2023/06/15 04:36:16;;;;;;;1.87;0.63;;;20.70;36.10;;;;;;5000949;28;20224;-69
2023/06/15 04:38:48;;;;;;;1.27;0.77;;;21.20;35.30;;;;;;5002754;28;20173;-66
2023/06/15 04:41:22;;;;;;;2.23;0.80;;;20.60;36.60;;;;;;5002083;28;20762;-67
2023/06/15 04:43:51;;;;;;;1.80;0.60;;;20.90;36.10;;;;;;5007276;28;20545;-67
2023/06/15 04:46:18;;;;;;;1.53;0.80;;;20.70;36.10;;;;;;5007076;28;20178;-65
2023/06/15 04:48:47;;;;;;;3.60;0.60;;;20.80;36.40;;;;;;5001545;28;20477;-68
2023/06/15 04:51:15;;;;;;;2.53;0.90;;;20.70;36.70;;;;;;5005157;28;20372;-66
2023/06/15 04:53:43;;;;;;;3.73;1.00;;;21.10;35.70;;;;;;5003231;28;20575;-67
2023/06/15 04:56:11;;;;;;;2.93;0.77;;;21.40;35.00;;;;;;5001971;28;20213;-66
2023/06/15 04:58:39;;;;;;;2.53;0.70;;;21.10;35.70;;;;;;5000845;28;20185;-68
2023/06/15 05:01:09;;;;;;;2.13;0.63;;;21.20;35.70;;;;;;5002694;28;20267;-65
2023/06/15 05:03:36;;;;;;;0.93;0.63;;;21.00;35.90;;;;;;5001184;28;20186;-70
2023/06/15 05:06:04;;;;;;;3.13;0.60;;;21.30;35.70;;;;;;5003615;28;20210;-70
2023/06/15 05:08:35;;;;;;;1.20;0.70;;;21.60;34.90;;;;;;5003261;28;20190;-70
2023/06/15 05:11:02;;;;;;;2.13;0.87;;;21.30;35.10;;;;;;5001920;28;20204;-70
2023/06/15 05:13:31;;;;;;;0.87;0.60;;;21.50;35.40;;;;;;5003026;28;20269;-71
2023/06/15 05:15:58;;;;;;;0.97;0.80;;;21.80;34.80;;;;;;5002227;28;20375;-72
2023/06/15 05:18:26;;;;;;;1.30;0.73;;;21.90;34.50;;;;;;4999173;28;20185;-70
2023/06/15 05:20:54;;;;;;;1.77;0.70;;;22.10;34.30;;;;;;5005010;28;20190;-70
2023/06/15 05:23:21;;;;;;;4.93;0.80;;;21.40;34.70;;;;;;5003615;28;20170;-72
2023/06/15 05:25:49;;;;;;;2.30;0.80;;;21.50;35.20;;;;;;4999518;28;20233;-70
2023/06/15 05:28:18;;;;;;;2.13;0.63;;;21.70;34.90;;;;;;4997404;28;20182;-72
2023/06/15 05:30:45;;;;;;;2.93;0.97;;;22.00;34.60;;;;;;5001632;28;20236;-71
2023/06/15 05:33:12;;;;;;;2.07;0.60;;;22.20;33.80;;;;;;4998129;28;20702;-71
2023/06/15 05:35:40;;;;;;;1.73;0.80;;;22.10;34.30;;;;;;5003320;28;20210;-66
2023/06/15 05:38:07;;;;;;;2.37;0.77;;;21.60;35.40;;;;;;4997515;28;20644;-68
2023/06/15 05:40:34;;;;;;;0.50;0.50;;;21.40;35.50;;;;;;5002917;28;20280;-66
2023/06/15 05:43:02;;;;;;;1.97;0.60;;;21.70;34.90;;;;;;5002908;28;20709;-66
2023/06/15 05:45:30;;;;;;;1.60;0.70;;;21.80;35.00;;;;;;5006133;28;20196;-66
2023/06/15 05:47:57;;;;;;;3.30;0.90;;;21.90;34.60;;;;;;4990304;28;20186;-66
2023/06/15 05:50:24;;;;;;;3.80;0.70;;;21.30;35.70;;;;;;5006224;28;20185;-68
2023/06/15 05:52:52;;;;;;;2.73;0.87;;;22.10;35.20;;;;;;5004906;28;20189;-66
2023/06/15 05:55:19;;;;;;;1.10;0.70;;;22.00;34.60;;;;;;4988975;28;20612;-66
2023/06/15 05:57:47;;;;;;;2.83;0.70;;;21.90;35.00;;;;;;5007591;28;20178;-66
2023/06/15 06:00:15;;;;;;;0.77;0.60;;;22.10;35.30;;;;;;5007913;28;20204;-66
2023/06/15 06:02:42;;;;;;;3.93;1.00;;;22.00;34.90;;;;;;5010357;28;20185;-67
2023/06/15 06:05:10;;;;;;;1.20;0.50;;;21.30;35.90;;;;;;5003974;28;20272;-66
2023/06/15 06:07:37;;;;;;;1.57;0.80;;;20.40;37.50;;;;;;5001736;28;20184;-66
2023/06/15 06:10:05;;;;;;;1.20;0.80;;;19.60;39.30;;;;;;5011436;28;20189;-66
2023/06/15 06:12:32;;;;;;;2.30;0.80;;;19.00;40.80;;;;;;5008508;28;20537;-66
2023/06/15 06:15:00;;;;;;;1.33;0.70;;;18.40;41.90;;;;;;5003214;28;20296;-70
2023/06/15 06:17:27;;;;;;;2.20;1.03;;;18.20;42.70;;;;;;5001856;28;20190;-70
2023/06/15 06:19:55;;;;;;;1.73;0.60;;;17.90;43.30;;;;;;5008192;28;20189;-70
2023/06/15 06:22:23;;;;;;;5.03;1.17;;;17.70;43.50;;;;;;5005093;28;20289;-71
2023/06/15 06:24:50;;;;;;;2.87;0.73;;;17.70;43.70;;;;;;5010055;28;20550;-69
2023/06/15 06:27:17;;;;;;;1.03;0.70;;;17.70;44.10;;;;;;5002307;28;20194;-71
2023/06/15 06:29:45;;;;;;;2.17;0.77;;;17.40;44.40;;;;;;5005581;28;20861;-71
2023/06/15 06:32:12;;;;;;;1.73;0.80;;;17.20;45.00;;;;;;5010777;28;20189;-67
2023/06/15 06:34:39;;;;;;;1.13;0.90;;;17.20;45.20;;;;;;5005911;28;20223;-66
2023/06/15 06:37:07;;;;;;;1.33;1.10;;;17.10;45.80;;;;;;4999286;28;20203;-66
2023/06/15 06:39:34;;;;;;;1.30;0.80;;;17.00;45.80;;;;;;5010188;28;20232;-66
2023/06/15 06:42:02;;;;;;;1.90;0.80;;;16.90;46.30;;;;;;5009791;28;20208;-65
2023/06/15 06:44:30;;;;;;;2.87;1.00;;;16.80;46.60;;;;;;5000447;28;20197;-65
2023/06/15 06:46:59;;;;;;;3.37;1.00;;;16.80;46.70;;;;;;5006135;28;20185;-66
2023/06/15 06:49:26;;;;;;;3.07;1.10;;;16.70;47.00;;;;;;5000013;28;20189;-64
2023/06/15 06:51:54;;;;;;;1.60;1.37;;;16.60;47.20;;;;;;5003570;28;20195;-65
2023/06/15 06:54:21;;;;;;;4.43;3.00;;;16.50;47.60;;;;;;5001501;28;20189;-65
2023/06/15 06:56:48;;;;;;;4.93;1.20;;;16.40;48.00;;;;;;5008518;28;20671;-66
2023/06/15 06:59:15;;;;;;;2.30;1.20;;;16.30;48.20;;;;;;5005429;28;20192;-65
2023/06/15 07:01:43;;;;;;;3.47;1.20;;;16.20;48.60;;;;;;4997559;28;20196;-65
2023/06/15 07:04:10;;;;;;;2.80;1.30;;;16.20;48.70;;;;;;5002987;28;20191;-67
2023/06/15 07:06:38;;;;;;;2.37;1.20;;;16.10;48.90;;;;;;5005967;28;20192;-67
2023/06/15 07:09:05;;;;;;;2.67;1.20;;;16.00;49.00;;;;;;5006515;28;20267;-64
2023/06/15 07:11:32;;;;;;;3.07;1.30;;;16.00;48.90;;;;;;5004123;28;20177;-65
2023/06/15 07:14:03;;;;;;;2.90;1.67;;;16.00;48.80;;;;;;5005887;28;20191;-66
2023/06/15 07:16:31;;;;;;;4.50;1.10;;;15.90;49.30;;;;;;5005454;28;20250;-66
2023/06/15 07:18:59;;;;;;;1.63;1.10;;;15.90;49.50;;;;;;5006249;28;20555;-66
2023/06/15 07:21:26;;;;;;;5.23;1.10;;;15.80;49.50;;;;;;5005106;28;20189;-65
2023/06/15 07:23:53;;;;;;;1.40;1.00;;;15.70;49.60;;;;;;5005059;28;20185;-66
2023/06/15 07:26:21;;;;;;;1.83;1.03;;;15.70;49.70;;;;;;5004093;28;20209;-67
2023/06/15 07:28:49;;;;;;;1.70;1.00;;;15.60;50.10;;;;;;5000968;28;20195;-67
2023/06/15 07:31:16;;;;;;;6.83;1.17;;;15.50;50.60;;;;;;5006544;28;20182;-66
2023/06/15 07:33:44;;;;;;;1.23;1.00;;;15.50;50.50;;;;;;4987497;28;20541;-68
2023/06/15 07:36:11;;;;;;;3.20;1.30;;;15.40;50.70;;;;;;5004182;28;20713;-66
2023/06/15 07:38:40;;;;;;;2.13;1.10;;;15.40;51.00;;;;;;5006134;28;20274;-65
2023/06/15 07:41:08;;;;;;;2.03;1.13;;;15.30;51.30;;;;;;5003792;28;20256;-66
2023/06/15 07:43:35;;;;;;;4.93;1.37;;;15.30;51.40;;;;;;5003100;28;20249;-66
2023/06/15 07:46:02;;;;;;;5.53;1.20;;;15.20;51.60;;;;;;5003074;28;20636;-66
2023/06/15 07:48:30;;;;;;;5.10;1.23;;;15.10;51.80;;;;;;5007449;28;20178;-66
2023/06/15 07:50:58;;;;;;;3.00;1.47;;;15.10;51.80;;;;;;5002167;28;20182;-68
2023/06/15 07:53:25;;;;;;;1.73;1.30;;;15.10;51.80;;;;;;5001623;28;20198;-66
2023/06/15 07:55:53;;;;;;;2.43;1.40;;;15.00;51.90;;;;;;5004825;28;20304;-67
2023/06/15 07:58:21;;;;;;;2.83;1.23;;;15.00;52.10;;;;;;5004964;28;20177;-66
2023/06/15 08:00:48;;;;;;;2.47;1.37;;;14.90;52.10;;;;;;5000486;28;20189;-65
2023/06/15 08:03:15;;;;;;;6.47;1.43;;;14.90;52.40;;;;;;5001332;28;20186;-66
2023/06/15 08:05:43;;;;;;;2.20;1.47;;;14.90;52.30;;;;;;5003718;28;20193;-69
2023/06/15 08:08:11;;;;;;;4.50;1.60;;;14.80;52.70;;;;;;5003481;28;20186;-67
2023/06/15 08:10:38;;;;;;;1.87;1.50;;;14.80;52.50;;;;;;5000136;28;20205;-67
2023/06/15 08:13:06;;;;;;;3.73;1.80;;;14.80;52.70;;;;;;5003581;28;20197;-68
2023/06/15 08:15:34;;;;;;;2.73;1.70;;;14.70;52.90;;;;;;5001010;28;20215;-66
2023/06/15 08:18:01;;;;;;;3.60;1.90;;;14.70;53.10;;;;;;4985459;28;20200;-66
2023/06/15 08:20:28;;;;;;;4.53;1.87;;;14.70;53.10;;;;;;5002614;28;20186;-65
2023/06/15 08:22:56;;;;;;;2.97;1.77;;;14.50;53.30;;;;;;5005423;28;20186;-67
2023/06/15 08:25:23;;;;;;;4.97;1.87;;;14.60;53.50;;;;;;5007577;28;20406;-65
2023/06/15 08:27:51;;;;;;;3.23;2.03;;;14.50;53.70;;;;;;5001450;28;20239;-67
2023/06/15 08:30:18;;;;;;;4.20;2.10;;;14.50;53.80;;;;;;4998214;28;20640;-67
2023/06/15 08:32:46;;;;;;;3.97;2.30;;;14.50;53.70;;;;;;5002738;28;20570;-70
2023/06/15 08:35:14;;;;;;;6.03;2.33;;;14.50;54.00;;;;;;5007486;28;20217;-66
2023/06/15 08:37:41;;;;;;;5.87;2.00;;;14.30;54.40;;;;;;5007374;28;20185;-67
2023/06/15 08:40:09;;;;;;;5.77;2.10;;;14.30;54.70;;;;;;5002962;28;20564;-66
2023/06/15 08:42:38;;;;;;;4.00;1.90;;;14.30;54.70;;;;;;4999375;28;20205;-67
2023/06/15 08:45:07;;;;;;;3.70;1.80;;;14.20;55.10;;;;;;5003814;28;20208;-66
2023/06/15 08:47:35;;;;;;;4.00;2.27;;;14.20;55.80;;;;;;4999159;28;20192;-66
2023/06/15 08:50:04;;;;;;;5.23;1.97;;;14.20;55.60;;;;;;5003137;28;20229;-66
2023/06/15 08:52:35;;;;;;;3.07;1.70;;;14.10;55.70;;;;;;5000956;28;20186;-66
2023/06/15 08:55:04;;;;;;;6.00;1.73;;;14.00;56.10;;;;;;5004655;28;20754;-67
2023/06/15 08:57:32;;;;;;;4.77;1.80;;;14.00;56.40;;;;;;5002527;28;20600;-66
2023/06/15 09:00:00;;;;;;;5.20;1.90;;;14.00;56.80;;;;;;5005280;28;20224;-67
2023/06/15 09:02:29;;;;;;;6.30;1.97;;;13.90;56.90;;;;;;5002909;28;20320;-67
2023/06/15 09:04:56;;;;;;;3.87;1.60;;;13.90;57.10;;;;;;5003339;28;20856;-67
2023/06/15 09:07:25;;;;;;;4.27;2.23;;;13.80;57.40;;;;;;5003048;28;20361;-65
2023/06/15 09:10:13;;;;;;;5.10;2.10;;;13.80;57.70;;;;;;5001906;28;20181;-65
2023/06/15 09:12:46;;;;;;;2.50;1.73;;;13.70;57.70;;;;;;5004796;28;20717;-67
2023/06/15 09:15:27;;;;;;;6.13;2.10;;;13.70;58.00;;;;;;5001668;28;20214;-67
2023/06/15 09:18:00;;;;;;;3.70;1.70;;;13.60;58.30;;;;;;5002767;28;20192;-66
2023/06/15 09:20:32;;;;;;;6.57;1.63;;;13.60;57.90;;;;;;5000335;28;20655;-68
2023/06/15 09:23:05;;;;;;;4.30;1.73;;;13.50;58.10;;;;;;5007059;28;20217;-70
2023/06/15 09:25:33;;;;;;;5.60;1.93;;;13.50;58.60;;;;;;5007675;28;20177;-67
2023/06/15 09:28:03;;;;;;;3.90;2.00;;;13.40;58.30;;;;;;5004299;28;20204;-70
2023/06/15 09:30:39;;;;;;;6.03;2.10;;;13.30;59.10;;;;;;5005686;28;20186;-66
2023/06/15 09:33:18;;;;;;;4.20;2.00;;;13.30;60.20;;;;;;5004195;28;20651;-66
2023/06/15 09:36:06;;;;;;;3.50;2.43;;;13.30;60.30;;;;;;5007608;28;20568;-67
2023/06/15 09:38:44;;;;;;;4.77;2.20;;;13.20;60.60;;;;;;5007364;28;20182;-67
2023/06/15 09:41:13;;;;;;;4.63;2.67;;;13.20;60.90;;;;;;5006165;28;20653;-68
2023/06/15 09:43:41;;;;;;;4.37;2.43;;;13.00;61.00;;;;;;5006141;28;20179;-69
2023/06/15 09:46:16;;;;;;;4.83;2.83;;;13.00;60.70;;;;;;5008665;28;20196;-67
2023/06/15 09:48:47;;;;;;;6.50;3.10;;;12.90;61.10;;;;;;5005227;28;20216;-68
2023/06/15 09:51:16;;;;;;;8.70;2.47;;;12.90;61.80;;;;;;5007865;28;20194;-65
2023/06/15 09:53:45;;;;;;;4.90;2.70;;;12.80;61.50;;;;;;5009104;28;20169;-67
2023/06/15 09:56:12;;;;;;;8.33;2.70;;;12.90;62.00;;;;;;5002085;28;20271;-67
2023/06/15 09:58:40;;;;;;;4.60;2.30;;;12.80;62.10;;;;;;5007691;28;20188;-68
2023/06/15 10:01:10;;;;;;;6.00;2.60;;;12.80;62.40;;;;;;5006882;28;20248;-71
2023/06/15 10:03:43;;;;;;;7.37;3.23;;;12.80;61.70;;;;;;5008207;28;20586;-66
2023/06/15 10:06:15;;;;;;;5.50;2.70;;;12.80;62.20;;;;;;5006917;28;20197;-67
2023/06/15 10:08:44;;;;;;;6.37;2.67;;;12.80;62.60;;;;;;5008009;28;20215;-71
2023/06/15 10:11:12;;;;;;;9.87;2.77;;;12.70;62.80;;;;;;5004466;28;20193;-68
2023/06/15 10:14:01;;;;;;;6.23;2.73;;;12.70;62.80;;;;;;5007428;28;20647;-67
2023/06/15 10:16:30;;;;;;;6.03;2.73;;;12.70;63.60;;;;;;5001536;28;20272;-70
2023/06/15 10:19:05;;;;;;;3.77;2.50;;;12.60;63.80;;;;;;5008305;28;20660;-70
2023/06/15 10:21:36;;;;;;;9.70;2.97;;;12.60;64.20;;;;;;5005664;28;20185;-68
2023/06/15 10:24:12;;;;;;;7.33;2.40;;;12.60;64.40;;;;;;5005437;28;20186;-66
2023/06/15 10:26:40;;;;;;;6.03;2.80;;;12.60;64.30;;;;;;5007485;28;20185;-68
2023/06/15 10:29:19;;;;;;;4.77;2.33;;;12.60;64.30;;;;;;5003355;28;20659;-68
2023/06/15 10:31:52;;;;;;;6.33;2.80;;;12.50;64.40;;;;;;5006655;28;20185;-71
2023/06/15 10:34:30;;;;;;;4.80;2.53;;;12.50;64.40;;;;;;5004177;28;20182;-67
2023/06/15 10:37:06;;;;;;;4.60;2.50;;;12.50;64.30;;;;;;5004842;28;20208;-65
2023/06/15 10:39:43;;;;;;;2.57;2.00;;;12.50;64.80;;;;;;5002003;28;20283;-67
2023/06/15 10:42:13;;;;;;;5.00;2.27;;;12.40;64.40;;;;;;5005405;28;20270;-67
2023/06/15 10:44:41;;;;;;;3.80;2.40;;;12.40;64.60;;;;;;5005071;28;20659;-66
2023/06/15 10:47:13;;;;;;;7.73;2.50;;;12.40;65.20;;;;;;5008502;28;20177;-67
2023/06/15 10:49:58;;;;;;;5.13;2.57;;;12.40;65.20;;;;;;5004413;28;20185;-66
2023/06/15 10:52:35;;;;;;;6.90;2.80;;;12.30;65.50;;;;;;5000171;28;20267;-66
2023/06/15 10:55:14;;;;;;;10.13;2.87;;;12.30;65.80;;;;;;5004703;28;20563;-65
2023/06/15 10:57:42;;;;;;;8.23;2.57;;;12.30;66.00;;;;;;4998733;28;20210;-66
2023/06/15 11:00:11;;;;;;;6.50;2.90;;;12.30;66.10;;;;;;5008721;28;20197;-65
2023/06/15 11:02:38;;;;;;;10.23;2.60;;;12.30;65.70;;;;;;5006711;28;20228;-65
2023/06/15 11:05:09;;;;;;;7.47;2.80;;;12.30;65.20;;;;;;5005587;28;20185;-66
2023/06/15 11:07:40;;;;;;;5.17;2.53;;;12.30;64.70;;;;;;5004930;28;20706;-66
2023/06/15 11:10:37;;;;;;;3.30;2.20;;;12.30;65.20;;;;;;5000964;28;20178;-66
2023/06/15 11:13:05;;;;;;;4.80;2.30;;;12.20;65.90;;;;;;5004663;28;20225;-65
2023/06/15 11:15:35;;;;;;;3.60;2.13;;;12.20;65.90;;;;;;5005862;28;20217;-65
2023/06/15 11:18:04;;;;;;;5.23;2.20;;;12.20;65.80;;;;;;5000261;28;20225;-66
2023/06/15 11:20:44;;;;;;;4.53;2.50;;;12.10;65.70;;;;;;5003197;28;20656;-67
2023/06/15 11:23:16;;;;;;;6.60;2.60;;;12.10;65.20;;;;;;5004602;28;20197;-66
2023/06/15 11:25:48;;;;;;;4.30;2.63;;;12.10;65.40;;;;;;5007455;28;20185;-65
2023/06/15 11:28:24;;;;;;;5.30;2.57;;;12.10;65.10;;;;;;5005219;28;20256;-65
2023/06/15 11:30:54;;;;;;;4.37;2.63;;;12.20;65.20;;;;;;5002842;28;20663;-65
2023/06/15 11:33:30;;;;;;;4.10;2.53;;;12.10;65.50;;;;;;5005582;28;20241;-65
2023/06/15 11:36:03;;;;;;;8.13;3.30;;;12.10;65.70;;;;;;5004684;28;20220;-65
2023/06/15 11:38:30;;;;;;;7.63;3.73;;;12.10;66.10;;;;;;5001668;28;20205;-65
2023/06/15 11:41:08;;;;;;;9.23;3.90;;;12.00;65.90;;;;;;5004673;28;20233;-65
2023/06/15 11:43:42;;;;;;;5.30;3.50;;;12.00;66.30;;;;;;5004982;28;20173;-66
2023/06/15 11:46:17;;;;;;;10.40;4.10;;;12.00;66.70;;;;;;5001332;28;20197;-65
2023/06/15 11:48:46;;;;;;;5.23;3.27;;;11.90;66.30;;;;;;5007274;28;20172;-65
2023/06/15 11:51:16;;;;;;;5.33;3.37;;;11.90;66.10;;;;;;5004668;28;20185;-66
2023/06/15 11:53:46;;;;;;;9.03;3.27;;;11.90;66.00;;;;;;5001807;28;20189;-65
2023/06/15 11:56:18;;;;;;;6.57;3.00;;;11.90;65.90;;;;;;5002830;28;20565;-65
2023/06/15 11:58:47;;;;;;;5.70;3.00;;;11.90;66.40;;;;;;5003480;28;20185;-66
2023/06/15 12:01:17;;;;;;;10.20;2.90;;;11.80;66.30;;;;;;5008195;28;20193;-67
2023/06/15 12:03:48;;;;;;;6.43;3.00;;;11.90;66.20;;;;;;5005532;28;20181;-65
2023/06/15 12:06:17;;;;;;;12.67;3.10;;;11.80;66.00;;;;;;5001796;28;20194;-66
2023/06/15 12:08:55;;;;;;;5.57;3.20;;;11.80;65.50;;;;;;5006480;28;20521;-65
2023/06/15 12:11:23;;;;;;;7.27;3.30;;;11.80;65.80;;;;;;4998629;28;20260;-66
2023/06/15 12:13:50;;;;;;;5.43;3.20;;;11.80;66.30;;;;;;4997910;28;20186;-65
2023/06/15 12:16:18;;;;;;;7.50;3.50;;;11.70;66.50;;;;;;5004210;28;20691;-66
2023/06/15 12:18:54;;;;;;;5.60;3.17;;;11.70;66.30;;;;;;5003705;28;20696;-66
2023/06/15 12:21:21;;;;;;;7.27;3.43;;;11.70;66.30;;;;;;5005789;28;20192;-66
2023/06/15 12:23:52;;;;;;;7.63;3.40;;;11.70;66.00;;;;;;5005704;28;20188;-65
2023/06/15 12:26:23;;;;;;;3.60;2.97;;;11.70;66.50;;;;;;5007890;28;20555;-66
2023/06/15 12:28:50;;;;;;;6.40;3.00;;;11.70;66.70;;;;;;5006756;28;20220;-67
2023/06/15 12:31:18;;;;;;;6.23;3.33;;;11.70;66.30;;;;;;5001302;28;20280;-66
2023/06/15 12:33:51;;;;;;;5.77;2.80;;;11.70;66.30;;;;;;5002823;28;20181;-66
2023/06/15 12:36:19;;;;;;;4.57;3.07;;;11.70;66.20;;;;;;5003317;28;20224;-69
2023/06/15 12:38:50;;;;;;;6.57;2.97;;;11.70;66.00;;;;;;5003729;28;20656;-66
2023/06/15 12:41:18;;;;;;;5.10;3.20;;;11.70;66.50;;;;;;5007760;28;20228;-67
2023/06/15 12:43:46;;;;;;;6.10;2.97;;;11.70;66.00;;;;;;5001132;28;20185;-65
2023/06/15 12:46:13;;;;;;;6.80;2.80;;;11.70;65.60;;;;;;5005491;28;20611;-68
2023/06/15 12:48:40;;;;;;;6.77;3.10;;;11.70;65.90;;;;;;5000750;28;20182;-67
2023/06/15 12:51:08;;;;;;;5.20;2.67;;;11.70;65.90;;;;;;5006543;28;20189;-66
2023/06/15 12:53:37;;;;;;;4.90;2.77;;;11.70;66.10;;;;;;5009220;28;20193;-66
2023/06/15 12:56:05;;;;;;;6.43;2.80;;;11.70;66.20;;;;;;5004812;28;20224;-65
2023/06/15 12:58:32;;;;;;;5.47;2.40;;;11.70;66.20;;;;;;5001061;28;20513;-69
2023/06/15 13:01:00;;;;;;;5.00;2.53;;;11.70;66.40;;;;;;5010170;28;20274;-67